Time;durP1;ratioP1;P1;durP2;ratioP2;P2;SDS_P1;SDS_P2;PMS_P1;PMS_P2;Temp;Humidity;BMP_temperature;BMP_pressure;BME280_temperature;BME280_humidity;BME280_pressure;Samples;Min_cycle;Max_cycle;Signal;HPM_P1;HPM_P2
2021/06/01 00:01:08;;;;;;;0.80;0.50;;;16.00;99.90;;;;;;5003293;28;20180;-82
2021/06/01 00:03:34;;;;;;;0.80;0.50;;;16.00;99.90;;;;;;5001080;28;20538;-82
2021/06/01 00:05:59;;;;;;;0.80;0.50;;;16.00;99.90;;;;;;5015798;28;20180;-81
2021/06/01 00:08:25;;;;;;;0.73;0.50;;;15.90;99.90;;;;;;5005025;28;20234;-81
2021/06/01 00:10:51;;;;;;;0.80;0.50;;;15.90;99.90;;;;;;5015382;28;20269;-82
2021/06/01 00:13:16;;;;;;;0.80;0.50;;;15.90;99.90;;;;;;4999288;28;20184;-81
2021/06/01 00:15:42;;;;;;;0.70;0.50;;;15.90;99.90;;;;;;4998580;28;20897;-79
2021/06/01 00:18:07;;;;;;;0.80;0.50;;;15.80;99.90;;;;;;4988535;28;20586;-80
2021/06/01 00:20:33;;;;;;;0.80;0.50;;;15.70;99.90;;;;;;5005991;28;20660;-80
2021/06/01 00:22:58;;;;;;;0.80;0.50;;;15.70;99.90;;;;;;4999973;28;20173;-82
2021/06/01 00:25:24;;;;;;;0.80;0.50;;;15.70;99.90;;;;;;4996218;28;20173;-84
2021/06/01 00:27:49;;;;;;;1.23;1.00;;;15.70;99.90;;;;;;4990272;28;20172;-82
2021/06/01 00:30:16;;;;;;;0.80;0.50;;;15.70;99.90;;;;;;4995964;28;20611;-83
2021/06/01 00:32:41;;;;;;;0.70;0.50;;;15.70;99.90;;;;;;5013824;28;20634;-83
2021/06/01 00:35:07;;;;;;;0.70;0.50;;;15.70;99.90;;;;;;5000413;28;20454;-81
2021/06/01 00:37:33;;;;;;;0.80;0.50;;;15.70;99.90;;;;;;4997469;28;20240;-84
2021/06/01 00:39:58;;;;;;;0.80;0.63;;;15.60;99.90;;;;;;5014407;28;20686;-80
2021/06/01 00:42:24;;;;;;;0.80;0.50;;;15.50;99.90;;;;;;4993959;28;20202;-81
2021/06/01 00:44:51;;;;;;;0.93;0.70;;;15.40;99.90;;;;;;4998078;28;20223;-82
2021/06/01 00:47:16;;;;;;;0.80;0.50;;;15.40;99.90;;;;;;5013644;28;20193;-82
2021/06/01 00:49:42;;;;;;;0.73;0.50;;;15.30;99.90;;;;;;4996713;28;20878;-82
2021/06/01 00:52:08;;;;;;;0.80;0.50;;;15.40;99.90;;;;;;4995503;28;20239;-83
2021/06/01 00:54:34;;;;;;;0.80;0.60;;;15.50;99.90;;;;;;5000334;28;20640;-83
2021/06/01 00:57:00;;;;;;;0.80;0.50;;;15.50;99.90;;;;;;5022649;28;20977;-83
2021/06/01 00:59:25;;;;;;;0.80;0.50;;;15.50;99.90;;;;;;5002760;28;20200;-82
2021/06/01 01:01:51;;;;;;;0.70;0.50;;;15.50;99.90;;;;;;5001972;28;20419;-80
2021/06/01 01:04:16;;;;;;;0.80;0.50;;;15.50;99.90;;;;;;5002451;28;20176;-82
2021/06/01 01:06:59;;;;;;;0.70;0.50;;;15.50;99.90;;;;;;5002060;28;20539;-82
2021/06/01 01:09:30;;;;;;;0.80;0.50;;;15.40;99.90;;;;;;5018417;28;20600;-82
2021/06/01 01:12:14;;;;;;;0.80;0.50;;;15.50;99.90;;;;;;4999323;28;20934;-84
2021/06/01 01:14:46;;;;;;;0.73;0.50;;;15.40;99.90;;;;;;4998523;28;20510;-83
2021/06/01 01:17:25;;;;;;;0.70;0.50;;;15.40;99.90;;;;;;5016818;28;20941;-83
2021/06/01 01:20:33;;;;;;;0.77;0.63;;;15.40;99.90;;;;;;5016073;28;20431;-80
2021/06/01 01:23:03;;;;;;;0.80;0.50;;;15.30;99.90;;;;;;5017203;28;20523;-82
2021/06/01 01:25:41;;;;;;;0.77;0.50;;;15.30;99.90;;;;;;5018269;28;20785;-82
2021/06/01 01:28:34;;;;;;;0.80;0.50;;;15.30;99.90;;;;;;4981977;28;20796;-82
2021/06/01 01:31:08;;;;;;;0.70;0.50;;;15.20;99.90;;;;;;5001378;28;20422;-83
2021/06/01 01:33:36;;;;;;;0.70;0.50;;;15.20;99.90;;;;;;4999169;28;20415;-83
2021/06/01 01:36:05;;;;;;;0.70;0.50;;;15.20;99.90;;;;;;5001289;28;20419;-80
2021/06/01 01:38:31;;;;;;;0.80;0.50;;;15.10;99.90;;;;;;4997773;28;20460;-81
2021/06/01 01:41:26;;;;;;;0.70;0.50;;;15.10;99.90;;;;;;5015970;28;22122;-82
2021/06/01 01:43:55;;;;;;;0.70;0.50;;;15.00;99.90;;;;;;4989705;28;20919;-83
2021/06/01 01:46:36;;;;;;;0.80;0.57;;;14.90;99.90;;;;;;5016024;28;20415;-81
2021/06/01 01:49:03;;;;;;;0.70;0.50;;;14.90;99.90;;;;;;4998956;28;20458;-81
2021/06/01 01:51:34;;;;;;;0.80;0.50;;;15.00;99.90;;;;;;5016448;28;20445;-80
2021/06/01 01:54:02;;;;;;;0.70;0.50;;;14.90;99.90;;;;;;5017336;28;20419;-81
2021/06/01 01:56:32;;;;;;;0.80;0.50;;;15.00;99.90;;;;;;4999342;28;20442;-83
2021/06/01 01:58:58;;;;;;;0.70;0.50;;;15.00;99.90;;;;;;4998671;28;20554;-81
2021/06/01 02:01:25;;;;;;;0.70;0.50;;;15.00;99.90;;;;;;4999088;28;20438;-80
2021/06/01 02:03:51;;;;;;;0.70;0.50;;;15.00;99.90;;;;;;4999318;28;20419;-81
2021/06/01 02:06:17;;;;;;;0.80;0.50;;;15.00;99.90;;;;;;4998603;28;20423;-81
2021/06/01 02:08:43;;;;;;;0.70;0.50;;;15.00;99.90;;;;;;4999568;28;20463;-82
2021/06/01 02:11:09;;;;;;;0.80;0.50;;;14.90;99.90;;;;;;5016549;28;20168;-79
2021/06/01 02:13:54;;;;;;;0.70;0.50;;;14.90;99.90;;;;;;5000184;28;20419;-80
2021/06/01 02:16:21;;;;;;;0.70;0.50;;;14.90;99.90;;;;;;5016258;28;20471;-79
2021/06/01 02:18:47;;;;;;;0.80;0.50;;;14.80;99.90;;;;;;5000015;28;20812;-80
2021/06/01 02:21:59;;;;;;;0.70;0.50;;;14.80;99.90;;;;;;4998649;28;21012;-79
2021/06/01 02:24:53;;;;;;;0.80;0.50;;;14.80;99.90;;;;;;5017212;28;20473;-79
2021/06/01 02:27:42;;;;;;;0.77;0.50;;;14.70;99.90;;;;;;4986009;28;20426;-80
2021/06/01 02:30:14;;;;;;;0.77;0.50;;;14.60;99.90;;;;;;5015757;28;20450;-79
2021/06/01 02:32:56;;;;;;;0.70;0.50;;;14.60;99.90;;;;;;4996163;28;20514;-79
2021/06/01 02:35:36;;;;;;;0.80;0.60;;;14.60;99.90;;;;;;4986302;28;20426;-79
2021/06/01 02:38:05;;;;;;;0.80;0.50;;;14.60;99.90;;;;;;4999704;28;20463;-79
2021/06/01 02:40:31;;;;;;;0.70;0.50;;;14.50;99.90;;;;;;4999424;28;20422;-79
2021/06/01 02:42:59;;;;;;;0.70;0.50;;;14.50;99.90;;;;;;5015508;28;20483;-80
2021/06/01 02:45:26;;;;;;;0.73;0.50;;;14.50;99.90;;;;;;4999949;28;20840;-79
2021/06/01 02:47:52;;;;;;;0.70;0.50;;;14.40;99.90;;;;;;5013903;28;20450;-79
2021/06/01 02:50:20;;;;;;;0.70;0.50;;;14.40;99.90;;;;;;4998816;28;20496;-78
2021/06/01 02:52:47;;;;;;;0.70;0.50;;;14.40;99.90;;;;;;5001857;28;21012;-78
2021/06/01 02:55:16;;;;;;;0.70;0.50;;;14.40;99.90;;;;;;4998480;28;20439;-79
2021/06/01 02:57:43;;;;;;;0.70;0.50;;;14.40;99.90;;;;;;4998073;28;20454;-80
2021/06/01 03:00:12;;;;;;;0.77;0.50;;;14.30;99.90;;;;;;4998245;28;20435;-78
2021/06/01 03:02:38;;;;;;;0.70;0.50;;;14.20;99.90;;;;;;5016389;28;20426;-78
2021/06/01 03:05:04;;;;;;;0.90;0.77;;;14.20;99.90;;;;;;5015995;28;20427;-78
2021/06/01 03:07:31;;;;;;;0.70;0.50;;;14.20;99.90;;;;;;5016037;28;20181;-80
2021/06/01 03:09:56;;;;;;;0.70;0.50;;;14.10;99.90;;;;;;4998419;28;20824;-80
2021/06/01 03:14:56;;;;;;;0.80;0.50;;;14.00;99.90;;;;;;5015709;28;20179;-79
2021/06/01 03:17:22;;;;;;;0.70;0.50;;;14.00;99.90;;;;;;5014477;28;20437;-80
2021/06/01 03:19:47;;;;;;;0.70;0.50;;;13.90;99.90;;;;;;4997118;28;20282;-80
2021/06/01 03:22:13;;;;;;;0.70;0.50;;;13.90;99.90;;;;;;5014609;28;20201;-80
2021/06/01 03:24:38;;;;;;;0.70;0.50;;;13.90;99.90;;;;;;4995842;28;20176;-81
2021/06/01 03:27:04;;;;;;;0.70;0.50;;;13.90;99.90;;;;;;5014828;28;20172;-79
2021/06/01 03:29:30;;;;;;;0.70;0.50;;;13.90;99.90;;;;;;4997720;28;20192;-80
2021/06/01 03:31:56;;;;;;;0.70;0.50;;;13.80;99.90;;;;;;4998941;28;20926;-81
2021/06/01 03:34:22;;;;;;;0.70;0.50;;;13.90;99.90;;;;;;4998414;28;20164;-80
2021/06/01 03:36:49;;;;;;;0.80;0.63;;;13.80;99.90;;;;;;5015899;28;20657;-82
2021/06/01 03:39:15;;;;;;;0.70;0.50;;;13.70;99.90;;;;;;4996833;28;20515;-80
2021/06/01 03:41:41;;;;;;;1.10;0.80;;;13.70;99.90;;;;;;4997704;28;20424;-80
2021/06/01 03:44:06;;;;;;;0.70;0.50;;;13.60;99.90;;;;;;4997426;28;20799;-80
2021/06/01 03:46:32;;;;;;;0.90;0.80;;;13.50;99.90;;;;;;4997319;28;20666;-80
2021/06/01 03:48:57;;;;;;;0.70;0.50;;;13.50;99.90;;;;;;5014455;28;20222;-80
2021/06/01 03:51:23;;;;;;;0.80;0.50;;;13.50;99.90;;;;;;4992954;28;20200;-81
2021/06/01 03:53:48;;;;;;;0.70;0.50;;;13.40;99.90;;;;;;5011580;28;20549;-81
2021/06/01 03:56:15;;;;;;;0.70;0.50;;;13.50;99.90;;;;;;4995890;28;20180;-81
2021/06/01 03:58:41;;;;;;;0.70;0.50;;;13.50;99.90;;;;;;5013100;28;20588;-81
2021/06/01 04:01:07;;;;;;;0.70;0.50;;;13.50;99.90;;;;;;4992285;28;20467;-80
2021/06/01 04:03:38;;;;;;;0.70;0.60;;;13.60;99.90;;;;;;4989522;28;20176;-80
2021/06/01 04:06:03;;;;;;;0.70;0.50;;;13.60;99.90;;;;;;4996313;28;20380;-79
2021/06/01 04:08:29;;;;;;;0.70;0.50;;;13.70;99.90;;;;;;4996212;28;20467;-79
2021/06/01 04:10:54;;;;;;;0.70;0.50;;;13.70;99.90;;;;;;5015769;28;20171;-80
2021/06/01 04:13:20;;;;;;;0.70;0.50;;;13.80;99.90;;;;;;5014306;28;20189;-79
2021/06/01 04:15:45;;;;;;;0.70;0.50;;;13.80;99.90;;;;;;5013917;28;20298;-78
2021/06/01 04:18:11;;;;;;;0.70;0.50;;;13.80;99.90;;;;;;4992933;28;20218;-79
2021/06/01 04:20:36;;;;;;;0.70;0.50;;;13.80;99.90;;;;;;5011542;28;20204;-78
2021/06/01 04:23:02;;;;;;;0.70;0.50;;;13.80;99.90;;;;;;4996440;28;20681;-78
2021/06/01 04:25:28;;;;;;;0.70;0.50;;;13.90;99.90;;;;;;4994068;28;20390;-81
2021/06/01 04:27:53;;;;;;;0.70;0.50;;;13.90;99.90;;;;;;4996196;28;20200;-81
2021/06/01 04:30:19;;;;;;;0.80;0.70;;;13.90;99.90;;;;;;5015836;28;20200;-81
2021/06/01 04:32:45;;;;;;;0.70;0.50;;;14.00;99.90;;;;;;5000383;28;20190;-83
2021/06/01 04:35:11;;;;;;;0.70;0.50;;;14.00;99.90;;;;;;5016905;28;20419;-83
2021/06/01 04:37:37;;;;;;;0.70;0.50;;;14.00;99.90;;;;;;5016498;28;20250;-83
2021/06/01 04:40:03;;;;;;;0.70;0.50;;;14.00;99.90;;;;;;4999143;28;20991;-83
2021/06/01 04:42:29;;;;;;;0.70;0.50;;;14.00;99.90;;;;;;4998770;28;20176;-83
2021/06/01 04:44:55;;;;;;;0.70;0.50;;;14.10;99.90;;;;;;5017114;28;20541;-83
2021/06/01 04:47:20;;;;;;;0.70;0.50;;;14.20;99.90;;;;;;4997950;28;20173;-83
2021/06/01 04:49:48;;;;;;;0.70;0.50;;;14.20;99.90;;;;;;5002633;28;20207;-82
2021/06/01 04:52:14;;;;;;;0.70;0.50;;;14.30;99.90;;;;;;5018771;28;20334;-83
2021/06/01 04:54:39;;;;;;;0.70;0.50;;;14.40;99.90;;;;;;5018113;28;20453;-82
2021/06/01 04:57:06;;;;;;;0.70;0.50;;;14.40;99.90;;;;;;5018236;28;20553;-82
2021/06/01 04:59:32;;;;;;;0.70;0.50;;;14.50;99.90;;;;;;5000155;28;20548;-83
2021/06/01 05:01:57;;;;;;;0.70;0.50;;;14.60;99.90;;;;;;4999567;28;20441;-83
2021/06/01 05:04:23;;;;;;;0.70;0.50;;;14.70;99.90;;;;;;5017963;28;20179;-83
2021/06/01 05:06:48;;;;;;;0.70;0.50;;;14.50;99.90;;;;;;4999557;28;20180;-83
2021/06/01 05:09:14;;;;;;;1.03;0.70;;;14.60;99.90;;;;;;4996223;28;20239;-83
2021/06/01 05:11:40;;;;;;;0.70;0.50;;;14.70;99.90;;;;;;5013337;28;20173;-85
2021/06/01 05:14:10;;;;;;;0.80;0.50;;;14.80;99.90;;;;;;4999326;28;20178;-85
2021/06/01 05:16:36;;;;;;;0.70;0.50;;;14.80;99.90;;;;;;4997355;28;20173;-82
2021/06/01 05:19:01;;;;;;;0.70;0.50;;;15.00;99.90;;;;;;5000407;28;20860;-83
2021/06/01 05:21:27;;;;;;;1.20;0.97;;;15.10;99.90;;;;;;5000632;28;20683;-85
2021/06/01 05:23:52;;;;;;;0.70;0.50;;;15.00;99.90;;;;;;5017615;28;20653;-85
2021/06/01 05:26:18;;;;;;;0.80;0.50;;;15.20;99.90;;;;;;4997718;28;20255;-83
2021/06/01 05:28:44;;;;;;;0.77;0.50;;;15.40;99.90;;;;;;5000011;28;20236;-85
2021/06/01 05:33:38;;;;;;;0.73;0.50;;;15.60;99.90;;;;;;5018295;28;20184;-85
2021/06/01 05:36:04;;;;;;;0.77;0.50;;;15.80;99.90;;;;;;4997470;28;20420;-85
2021/06/01 05:38:31;;;;;;;0.80;0.50;;;15.80;99.90;;;;;;4980257;28;20502;-85
2021/06/01 05:40:58;;;;;;;0.80;0.70;;;16.00;99.90;;;;;;5017859;28;20519;-85
2021/06/01 05:43:24;;;;;;;0.80;0.50;;;16.20;99.90;;;;;;5017142;28;20434;-86
2021/06/01 05:45:51;;;;;;;0.80;0.50;;;16.30;99.90;;;;;;5018237;28;20407;-85
2021/06/01 05:48:17;;;;;;;0.80;0.50;;;16.50;99.90;;;;;;4997234;28;20189;-85
2021/06/01 05:50:43;;;;;;;1.37;1.27;;;16.70;99.90;;;;;;4997935;28;20965;-84
2021/06/01 05:53:10;;;;;;;0.80;0.50;;;16.80;99.90;;;;;;4997966;28;20388;-84
2021/06/01 05:55:37;;;;;;;0.80;0.50;;;16.90;99.90;;;;;;4979658;28;20408;-83
2021/06/01 05:58:04;;;;;;;0.80;0.50;;;17.00;99.90;;;;;;4979570;28;21015;-85
2021/06/01 06:00:30;;;;;;;0.80;0.50;;;17.10;99.90;;;;;;5007014;28;20421;-84
2021/06/01 06:02:57;;;;;;;0.80;0.50;;;17.40;99.90;;;;;;5015738;28;20498;-84
2021/06/01 06:05:23;;;;;;;0.80;0.50;;;17.60;99.90;;;;;;5015590;28;20419;-85
2021/06/01 06:07:49;;;;;;;0.80;0.50;;;17.60;99.90;;;;;;4998580;28;20426;-85
2021/06/01 06:10:15;;;;;;;0.80;0.50;;;17.90;99.90;;;;;;4997727;28;20467;-85
2021/06/01 06:12:40;;;;;;;0.80;0.50;;;18.00;99.90;;;;;;4998257;28;20749;-84
2021/06/01 06:15:10;;;;;;;0.80;0.50;;;18.10;99.90;;;;;;4997775;28;20164;-85
2021/06/01 06:17:43;;;;;;;0.80;0.50;;;18.50;99.90;;;;;;4997230;28;20667;-84
2021/06/01 06:20:11;;;;;;;0.80;0.60;;;18.80;99.90;;;;;;4997077;28;20427;-85
2021/06/01 06:22:37;;;;;;;0.80;0.50;;;19.20;99.90;;;;;;4997483;28;20411;-85
2021/06/01 06:25:07;;;;;;;0.80;0.50;;;19.10;99.90;;;;;;5014804;28;20418;-85
2021/06/01 06:27:34;;;;;;;0.80;0.50;;;19.60;99.90;;;;;;4996666;28;20482;-85
2021/06/01 06:30:06;;;;;;;0.80;0.50;;;19.80;99.90;;;;;;4997268;28;20451;-85
2021/06/01 06:32:32;;;;;;;0.80;0.50;;;19.80;99.90;;;;;;4997110;28;20407;-85
2021/06/01 06:34:58;;;;;;;0.80;0.50;;;20.00;99.90;;;;;;4996950;28;20470;-85
2021/06/01 06:37:23;;;;;;;0.80;0.50;;;20.30;99.90;;;;;;4996983;28;20168;-84
2021/06/01 06:39:49;;;;;;;0.80;0.50;;;20.40;99.90;;;;;;4997076;28;20195;-85
2021/06/01 06:42:17;;;;;;;0.80;0.50;;;20.70;99.90;;;;;;5014090;28;20625;-84
2021/06/01 06:44:47;;;;;;;0.80;0.50;;;20.50;99.90;;;;;;5010612;28;20172;-84
2021/06/01 06:47:28;;;;;;;0.80;0.50;;;20.90;99.90;;;;;;5014420;28;20414;-85
2021/06/01 06:49:55;;;;;;;0.80;0.50;;;21.20;99.90;;;;;;4996849;28;20451;-84
2021/06/01 06:52:21;;;;;;;0.90;0.60;;;21.30;99.90;;;;;;4996799;28;20447;-86
2021/06/01 06:54:47;;;;;;;0.80;0.60;;;21.50;99.90;;;;;;4997098;28;20415;-84
2021/06/01 06:57:16;;;;;;;0.80;0.50;;;21.40;99.90;;;;;;4993211;28;20450;-85
2021/06/01 06:59:41;;;;;;;0.80;0.60;;;21.70;99.90;;;;;;4994016;28;20531;-86
2021/06/01 07:02:07;;;;;;;1.17;0.67;;;21.60;99.90;;;;;;4994468;28;20446;-85
2021/06/01 07:04:32;;;;;;;0.80;0.50;;;21.90;99.60;;;;;;4993858;28;20173;-86
2021/06/01 07:06:59;;;;;;;0.80;0.60;;;22.00;99.90;;;;;;4993437;28;20180;-85
2021/06/01 07:09:25;;;;;;;0.80;0.50;;;22.20;99.90;;;;;;4985328;28;20258;-85
2021/06/01 07:11:51;;;;;;;0.80;0.60;;;22.40;99.60;;;;;;4993726;28;20412;-85
2021/06/01 07:15:16;;;;;;;0.80;0.70;;;22.90;98.70;;;;;;4995986;28;20432;-85
2021/06/01 07:17:47;;;;;;;0.80;0.50;;;23.10;96.80;;;;;;4976575;28;20412;-86
2021/06/01 07:20:18;;;;;;;0.80;0.60;;;23.60;96.20;;;;;;4977285;28;20404;-86
2021/06/01 07:22:44;;;;;;;0.80;0.50;;;24.10;96.80;;;;;;4994636;28;20399;-85
2021/06/01 07:25:10;;;;;;;0.80;0.60;;;24.10;90.40;;;;;;4993683;28;20466;-85
2021/06/01 07:27:36;;;;;;;0.80;0.50;;;24.40;90.10;;;;;;4977624;28;20200;-85
2021/06/01 07:30:04;;;;;;;0.80;0.50;;;24.80;87.50;;;;;;5015313;28;20501;-86
2021/06/01 07:32:30;;;;;;;0.80;0.50;;;25.10;89.10;;;;;;4997451;28;20171;-85
2021/06/01 07:34:57;;;;;;;0.80;0.50;;;25.20;80.10;;;;;;5014626;28;20418;-85
2021/06/01 07:37:23;;;;;;;0.80;0.60;;;25.30;74.40;;;;;;4993938;28;20241;-84
2021/06/01 07:39:49;;;;;;;0.80;0.50;;;25.50;79.30;;;;;;4990257;28;20911;-85
2021/06/01 07:42:14;;;;;;;0.80;0.60;;;25.70;73.40;;;;;;5013261;28;20176;-85
2021/06/01 07:44:40;;;;;;;0.90;0.70;;;25.70;75.20;;;;;;4993995;28;20568;-84
2021/06/01 07:47:06;;;;;;;0.90;0.73;;;25.90;72.60;;;;;;4993940;28;20423;-83
2021/06/01 07:49:31;;;;;;;0.80;0.50;;;25.70;70.00;;;;;;4994038;28;20201;-85
2021/06/01 07:51:57;;;;;;;0.80;0.50;;;26.30;74.60;;;;;;4985419;28;20188;-86
2021/06/01 07:54:22;;;;;;;0.80;0.50;;;26.40;69.20;;;;;;4995011;28;20177;-85
2021/06/01 07:56:48;;;;;;;0.80;0.60;;;26.60;67.70;;;;;;5013451;28;20279;-85
2021/06/01 07:59:14;;;;;;;0.80;0.60;;;26.80;69.90;;;;;;5014598;28;20192;-85
2021/06/01 08:01:42;;;;;;;1.00;0.73;;;26.90;66.00;;;;;;4997292;28;20637;-85
2021/06/01 08:04:09;;;;;;;0.80;0.50;;;27.30;63.10;;;;;;4997180;28;20234;-85
2021/06/01 08:06:37;;;;;;;0.80;0.50;;;27.30;61.20;;;;;;4994407;28;20451;-84
2021/06/01 08:09:06;;;;;;;0.80;0.60;;;27.30;61.30;;;;;;4993427;28;20836;-85
2021/06/01 08:11:35;;;;;;;0.80;0.60;;;27.60;60.20;;;;;;4991371;28;20765;-85
2021/06/01 08:14:01;;;;;;;0.90;0.60;;;28.20;61.70;;;;;;4996462;28;20450;-85
2021/06/01 08:16:27;;;;;;;0.80;0.60;;;28.40;60.30;;;;;;4998009;28;20807;-85
2021/06/01 08:21:39;;;;;;;0.80;0.50;;;28.00;56.40;;;;;;5016741;28;20399;-85
2021/06/01 08:24:05;;;;;;;0.90;0.60;;;28.20;57.90;;;;;;4996677;28;20445;-83
2021/06/01 08:26:30;;;;;;;0.90;0.60;;;28.60;55.80;;;;;;4997891;28;20423;-85
2021/06/01 08:28:56;;;;;;;0.80;0.60;;;28.80;54.00;;;;;;4995550;28;20462;-85
2021/06/01 08:31:21;;;;;;;0.80;0.50;;;29.00;54.20;;;;;;4995698;28;20176;-84
2021/06/01 08:33:47;;;;;;;2.20;1.93;;;29.20;53.00;;;;;;4996450;28;20218;-84
2021/06/01 08:36:12;;;;;;;0.80;0.60;;;29.20;53.50;;;;;;5014813;28;20733;-84
2021/06/01 08:38:39;;;;;;;0.90;0.60;;;28.90;52.60;;;;;;5015107;28;20192;-84
2021/06/01 08:41:06;;;;;;;0.80;0.60;;;29.20;52.60;;;;;;4999428;28;20168;-85
2021/06/01 08:43:33;;;;;;;1.00;0.90;;;29.60;54.70;;;;;;4997992;28;20498;-84
2021/06/01 08:45:58;;;;;;;0.90;0.60;;;29.90;51.80;;;;;;4996210;28;20411;-82
2021/06/01 08:48:26;;;;;;;0.90;0.60;;;30.10;49.90;;;;;;4996411;28;20450;-84
2021/06/01 08:50:54;;;;;;;0.80;0.60;;;29.30;47.10;;;;;;5014736;28;20181;-85
2021/06/01 08:53:20;;;;;;;0.90;0.80;;;29.50;47.30;;;;;;5015226;28;20883;-82
2021/06/01 08:55:47;;;;;;;0.80;0.60;;;29.30;48.90;;;;;;5014392;28;20472;-84
2021/06/01 08:58:15;;;;;;;0.80;0.60;;;29.90;49.70;;;;;;5013259;28;20653;-84
2021/06/01 09:00:41;;;;;;;1.13;1.03;;;30.00;46.10;;;;;;4996940;28;20419;-85
2021/06/01 09:03:14;;;;;;;0.80;0.60;;;29.80;46.30;;;;;;5013498;28;20430;-83
2021/06/01 09:22:31;;;;;;;0.80;0.60;;;30.00;45.90;;;;;;5018349;28;20923;-85
2021/06/01 09:25:09;;;;;;;1.00;0.70;;;30.50;47.60;;;;;;5018424;28;20441;-83
2021/06/01 09:27:44;;;;;;;0.80;0.60;;;30.70;44.90;;;;;;5018194;28;20383;-83
2021/06/01 09:30:11;;;;;;;0.90;0.60;;;30.50;41.00;;;;;;5002553;28;20442;-82
2021/06/01 09:32:43;;;;;;;0.87;0.60;;;29.80;41.40;;;;;;4999805;28;20474;-84
2021/06/01 09:35:10;;;;;;;0.80;0.60;;;29.80;44.20;;;;;;5005704;28;20419;-86
2021/06/01 09:37:36;;;;;;;0.80;0.50;;;29.90;44.00;;;;;;5022167;28;20425;-86
2021/06/01 09:40:17;;;;;;;0.90;0.70;;;29.80;42.10;;;;;;5005512;28;20466;-84
2021/06/01 09:42:48;;;;;;;0.80;0.50;;;30.30;42.40;;;;;;5003579;28;20434;-85
2021/06/01 09:45:19;;;;;;;0.80;0.60;;;30.00;41.80;;;;;;5003337;28;20473;-84
2021/06/01 09:47:49;;;;;;;0.80;0.60;;;28.90;41.20;;;;;;5002881;28;20419;-84
2021/06/01 09:52:59;;;;;;;0.87;0.60;;;29.50;43.30;;;;;;5018885;28;20419;-83
2021/06/01 09:55:29;;;;;;;0.80;0.60;;;29.40;43.40;;;;;;5019881;28;20419;-81
2021/06/01 09:57:56;;;;;;;0.80;0.50;;;29.00;44.90;;;;;;4996873;28;20440;-83
2021/06/01 10:00:27;;;;;;;0.80;0.60;;;29.40;43.80;;;;;;4997605;28;20499;-81
2021/06/01 10:02:57;;;;;;;0.83;0.60;;;29.10;43.50;;;;;;4997318;28;20506;-81
2021/06/01 10:05:26;;;;;;;0.87;0.63;;;28.80;45.00;;;;;;5000313;28;20411;-82
2021/06/01 10:07:54;;;;;;;0.80;0.60;;;29.30;44.40;;;;;;5017555;28;20963;-84
2021/06/01 10:10:21;;;;;;;0.83;0.60;;;29.80;45.00;;;;;;5018033;28;20439;-83
2021/06/01 10:12:49;;;;;;;1.20;1.10;;;30.30;43.30;;;;;;4999947;28;20416;-81
2021/06/01 10:15:16;;;;;;;0.80;0.70;;;30.00;46.00;;;;;;4997231;28;20424;-85
2021/06/01 10:17:43;;;;;;;0.87;0.70;;;30.20;42.60;;;;;;4999739;28;20407;-85
2021/06/01 10:20:09;;;;;;;0.80;0.60;;;29.90;42.90;;;;;;5000344;28;20950;-81
2021/06/01 10:22:35;;;;;;;0.87;0.60;;;30.40;43.20;;;;;;4998014;28;20426;-83
2021/06/01 10:25:01;;;;;;;1.03;0.90;;;30.10;42.60;;;;;;4981253;28;20463;-82
2021/06/01 10:27:27;;;;;;;0.87;0.60;;;30.40;43.20;;;;;;4995792;28;20420;-86
2021/06/01 10:29:53;;;;;;;1.00;0.83;;;30.70;42.40;;;;;;5001824;28;20274;-82
2021/06/01 10:32:20;;;;;;;0.90;0.60;;;30.80;40.90;;;;;;4997105;28;20487;-85
2021/06/01 10:34:46;;;;;;;0.80;0.60;;;31.00;42.10;;;;;;4982603;28;20487;-81
2021/06/01 10:49:59;;;;;;;0.90;0.60;;;31.10;40.40;;;;;;5007506;28;20465;-83
2021/06/01 10:51:55;;;;;;;0.80;0.60;;;30.90;42.10;;;;;;5015031;28;20954;-85
2021/06/01 10:54:39;;;;;;;0.80;0.60;;;31.10;41.80;;;;;;4999922;28;20486;-85
2021/06/01 10:57:06;;;;;;;1.00;0.70;;;30.60;41.80;;;;;;5016849;28;20422;-83
2021/06/01 10:59:57;;;;;;;0.90;0.60;;;30.30;43.10;;;;;;5015401;28;20446;-85
2021/06/01 11:02:24;;;;;;;0.90;0.70;;;31.10;43.50;;;;;;5002048;28;20410;-85
2021/06/01 11:05:07;;;;;;;1.30;1.20;;;31.50;43.50;;;;;;5000429;28;20430;-86
2021/06/01 11:07:54;;;;;;;0.80;0.60;;;31.50;42.80;;;;;;4999422;28;20414;-81
2021/06/01 11:10:40;;;;;;;0.90;0.60;;;31.60;43.00;;;;;;4998635;28;20577;-83
2021/06/01 11:13:08;;;;;;;1.37;1.27;;;32.00;41.50;;;;;;4997593;28;20485;-84
2021/06/01 11:15:37;;;;;;;0.90;0.80;;;32.00;40.30;;;;;;4996654;28;20418;-84
2021/06/01 11:18:41;;;;;;;0.90;0.70;;;32.90;42.40;;;;;;4994812;28;20797;-82
2021/06/01 11:21:33;;;;;;;0.90;0.67;;;32.30;42.00;;;;;;5007196;28;20416;-85
2021/06/01 11:33:40;;;;;;;0.90;0.70;;;33.10;41.60;;;;;;4955090;28;20440;-84
2021/06/01 11:36:20;;;;;;;0.90;0.60;;;33.00;43.00;;;;;;4965470;28;20444;-87
2021/06/01 11:38:57;;;;;;;0.90;0.60;;;32.80;40.20;;;;;;5003168;28;20993;-84
2021/06/01 11:44:27;;;;;;;0.83;0.60;;;32.20;39.20;;;;;;5016075;28;20430;-85
2021/06/01 11:46:59;;;;;;;0.90;0.60;;;32.40;39.00;;;;;;5016650;28;20405;-85
2021/06/01 11:52:10;;;;;;;1.10;0.83;;;31.50;40.60;;;;;;5016253;28;20497;-82
2021/06/01 11:54:54;;;;;;;0.90;0.80;;;32.10;42.60;;;;;;4999273;28;20912;-83
2021/06/01 11:57:35;;;;;;;0.80;0.60;;;32.10;42.40;;;;;;5014155;28;20180;-84
2021/06/01 12:27:27;;;;;;;0.90;0.60;;;31.50;38.90;;;;;;4907066;29;20413;-82
2021/06/01 12:32:44;;;;;;;0.80;0.60;;;32.60;43.40;;;;;;4951803;29;20457;-84
2021/06/01 12:42:08;;;;;;;1.07;0.70;;;32.40;37.40;;;;;;4912004;29;20463;-84
2021/06/01 12:44:39;;;;;;;1.77;1.03;;;32.80;38.40;;;;;;4896958;29;20494;-85
2021/06/01 12:47:27;;;;;;;0.90;0.70;;;32.60;38.90;;;;;;4898640;29;20415;-85
2021/06/01 13:12:08;;;;;;;0.80;0.60;;;31.50;40.70;;;;;;5012481;28;20469;-86
2021/06/01 13:21:06;;;;;;;0.83;0.70;;;32.40;38.40;;;;;;5016827;28;20462;-81
2021/06/01 13:36:24;;;;;;;1.00;0.80;;;31.90;40.20;;;;;;4960174;28;20442;-85
2021/06/01 13:46:40;;;;;;;0.90;0.60;;;30.40;39.20;;;;;;5008463;28;20462;-84
2021/06/01 13:57:35;;;;;;;0.90;0.63;;;29.80;43.20;;;;;;5019260;28;20617;-82
2021/06/01 14:00:16;;;;;;;0.90;0.60;;;29.30;40.10;;;;;;4997799;28;20477;-81
2021/06/01 14:35:54;;;;;;;0.87;0.67;;;28.10;44.40;;;;;;5018501;28;20981;-82
2021/06/01 15:50:34;;;;;;;1.20;1.00;;;26.40;42.80;;;;;;4999093;28;20462;-81
2021/06/01 16:21:31;;;;;;;0.80;0.63;;;26.40;45.50;;;;;;5014906;28;20433;-84
2021/06/01 16:32:43;;;;;;;0.80;0.50;;;26.20;44.20;;;;;;5012802;28;20507;-83
2021/06/01 16:43:52;;;;;;;0.80;0.50;;;26.30;45.00;;;;;;5017470;28;20426;-81
2021/06/01 17:06:20;;;;;;;0.80;0.50;;;26.00;46.60;;;;;;5018361;28;20408;-83
2021/06/01 17:11:41;;;;;;;0.80;0.50;;;26.00;45.60;;;;;;5015423;28;20407;-84
2021/06/01 17:14:12;;;;;;;0.80;0.50;;;26.00;45.20;;;;;;5018346;28;20418;-82
2021/06/01 17:30:56;;;;;;;1.17;1.07;;;25.60;47.00;;;;;;5025509;28;20822;-82
2021/06/01 17:36:20;;;;;;;1.87;1.47;;;25.60;47.60;;;;;;4979985;28;20441;-81
2021/06/01 17:38:47;;;;;;;0.80;0.57;;;25.50;47.40;;;;;;5004538;28;20495;-80
2021/06/01 17:41:17;;;;;;;0.80;0.60;;;25.50;47.50;;;;;;5001003;28;20423;-83
2021/06/01 17:43:43;;;;;;;0.83;0.57;;;25.40;47.50;;;;;;5025308;28;20455;-80
2021/06/01 17:46:12;;;;;;;0.80;0.57;;;25.30;46.90;;;;;;5004148;28;21135;-82
2021/06/01 17:48:50;;;;;;;0.80;0.50;;;25.40;47.90;;;;;;4996916;28;20447;-82
2021/06/01 17:51:16;;;;;;;0.80;0.60;;;25.40;50.00;;;;;;5024487;28;20418;-82
2021/06/01 17:53:47;;;;;;;0.80;0.63;;;25.40;50.00;;;;;;5007141;28;20407;-81
2021/06/01 17:56:19;;;;;;;4.63;1.00;;;25.40;49.70;;;;;;5006159;28;20472;-81
2021/06/01 17:58:45;;;;;;;0.80;0.50;;;25.40;49.20;;;;;;5005016;28;20456;-81
2021/06/01 18:01:10;;;;;;;0.80;0.60;;;25.20;49.10;;;;;;5024399;28;20415;-80
2021/06/01 18:04:19;;;;;;;0.80;0.60;;;25.10;50.30;;;;;;5007730;28;20172;-81
2021/06/01 18:06:36;;;;;;;0.80;0.60;;;25.10;50.40;;;;;;4998644;28;20545;-81
2021/06/01 18:09:12;;;;;;;1.27;1.17;;;25.10;51.10;;;;;;5003291;28;20435;-80
2021/06/01 18:11:52;;;;;;;1.00;0.80;;;24.80;49.70;;;;;;5024722;28;20783;-81
2021/06/01 19:50:53;;;;;;;1.17;1.00;;;22.80;73.40;;;;;;4994192;28;20521;-81
2021/06/01 19:53:21;;;;;;;0.80;0.60;;;22.70;75.30;;;;;;5005086;28;20513;-81
2021/06/01 19:55:47;;;;;;;0.80;0.50;;;22.60;78.00;;;;;;5023589;28;20816;-81
2021/06/01 19:58:15;;;;;;;0.80;0.50;;;22.50;81.00;;;;;;5023640;28;20459;-81
2021/06/01 20:00:41;;;;;;;0.80;0.50;;;22.40;86.00;;;;;;5025008;28;20176;-80
2021/06/01 20:03:07;;;;;;;1.13;0.73;;;22.30;87.40;;;;;;5006609;28;20438;-80
2021/06/01 20:05:34;;;;;;;0.90;0.70;;;22.30;91.10;;;;;;5024780;28;20419;-80
2021/06/01 20:08:00;;;;;;;0.80;0.50;;;22.20;93.00;;;;;;5006571;28;20951;-81
2021/06/01 20:10:26;;;;;;;0.80;0.60;;;22.10;93.80;;;;;;5008791;28;20466;-80
2021/06/01 20:12:52;;;;;;;0.80;0.50;;;22.00;95.20;;;;;;5026740;28;20426;-81
2021/06/01 20:15:18;;;;;;;0.80;0.50;;;21.90;95.40;;;;;;5008597;28;20180;-80